sensor_id;sensor_type;location;lat;lon;timestamp;P1;durP1;ratioP1;P2;durP2;ratioP2
11986;SDS011;6053;51.382;6.768;2023-08-12T00:00:30;1.20;;;0.60;;
11986;SDS011;6053;51.382;6.768;2023-08-12T00:03:00;0.40;;;0.40;;
11986;SDS011;6053;51.382;6.768;2023-08-12T00:05:29;0.30;;;0.30;;
11986;SDS011;6053;51.382;6.768;2023-08-12T00:07:57;1.90;;;1.33;;
11986;SDS011;6053;51.382;6.768;2023-08-12T00:10:26;5.88;;;0.90;;
11986;SDS011;6053;51.382;6.768;2023-08-12T00:12:55;1.03;;;1.00;;
11986;SDS011;6053;51.382;6.768;2023-08-12T00:15:26;0.47;;;0.47;;
11986;SDS011;6053;51.382;6.768;2023-08-12T00:18:08;0.63;;;0.45;;
11986;SDS011;6053;51.382;6.768;2023-08-12T00:20:36;0.75;;;0.68;;
11986;SDS011;6053;51.382;6.768;2023-08-12T00:23:08;0.80;;;0.80;;
11986;SDS011;6053;51.382;6.768;2023-08-12T00:25:37;1.27;;;1.15;;
11986;SDS011;6053;51.382;6.768;2023-08-12T00:28:13;1.10;;;0.80;;
11986;SDS011;6053;51.382;6.768;2023-08-12T00:30:41;1.10;;;1.02;;
11986;SDS011;6053;51.382;6.768;2023-08-12T00:33:11;0.65;;;0.43;;
11986;SDS011;6053;51.382;6.768;2023-08-12T00:35:40;1.83;;;1.13;;
11986;SDS011;6053;51.382;6.768;2023-08-12T00:38:08;0.65;;;0.50;;
11986;SDS011;6053;51.382;6.768;2023-08-12T00:40:39;1.70;;;1.60;;
11986;SDS011;6053;51.382;6.768;2023-08-12T00:43:08;1.13;;;0.75;;
11986;SDS011;6053;51.382;6.768;2023-08-12T00:45:39;2.53;;;2.00;;
11986;SDS011;6053;51.382;6.768;2023-08-12T00:48:10;0.63;;;0.63;;
11986;SDS011;6053;51.382;6.768;2023-08-12T00:50:41;1.63;;;1.52;;
11986;SDS011;6053;51.382;6.768;2023-08-12T00:53:10;0.63;;;0.52;;
11986;SDS011;6053;51.382;6.768;2023-08-12T00:55:40;0.83;;;0.83;;
11986;SDS011;6053;51.382;6.768;2023-08-12T00:58:09;1.40;;;0.98;;
11986;SDS011;6053;51.382;6.768;2023-08-12T01:00:41;0.47;;;0.47;;
11986;SDS011;6053;51.382;6.768;2023-08-12T01:03:10;0.50;;;0.50;;
11986;SDS011;6053;51.382;6.768;2023-08-12T01:05:40;0.43;;;0.43;;
11986;SDS011;6053;51.382;6.768;2023-08-12T01:08:09;0.60;;;0.60;;
11986;SDS011;6053;51.382;6.768;2023-08-12T01:10:39;0.57;;;0.50;;
11986;SDS011;6053;51.382;6.768;2023-08-12T01:13:26;0.60;;;0.60;;
11986;SDS011;6053;51.382;6.768;2023-08-12T01:16:04;0.47;;;0.47;;
11986;SDS011;6053;51.382;6.768;2023-08-12T01:18:39;0.52;;;0.52;;
11986;SDS011;6053;51.382;6.768;2023-08-12T01:21:10;1.30;;;1.20;;
11986;SDS011;6053;51.382;6.768;2023-08-12T01:23:51;1.30;;;1.20;;
11986;SDS011;6053;51.382;6.768;2023-08-12T01:26:28;1.50;;;1.40;;
11986;SDS011;6053;51.382;6.768;2023-08-12T01:28:57;0.70;;;0.70;;
11986;SDS011;6053;51.382;6.768;2023-08-12T01:31:27;3.37;;;2.03;;
11986;SDS011;6053;51.382;6.768;2023-08-12T01:34:10;2.58;;;1.70;;
11986;SDS011;6053;51.382;6.768;2023-08-12T01:36:46;3.75;;;1.95;;
11986;SDS011;6053;51.382;6.768;2023-08-12T01:39:21;3.00;;;2.00;;
11986;SDS011;6053;51.382;6.768;2023-08-12T01:41:53;1.20;;;1.00;;
11986;SDS011;6053;51.382;6.768;2023-08-12T01:44:22;1.77;;;1.30;;
11986;SDS011;6053;51.382;6.768;2023-08-12T01:46:52;1.00;;;0.85;;
11986;SDS011;6053;51.382;6.768;2023-08-12T01:49:23;1.35;;;0.82;;
11986;SDS011;6053;51.382;6.768;2023-08-12T01:51:57;2.53;;;1.75;;
11986;SDS011;6053;51.382;6.768;2023-08-12T01:54:31;2.43;;;2.20;;
11986;SDS011;6053;51.382;6.768;2023-08-12T01:57:10;0.70;;;0.70;;
11986;SDS011;6053;51.382;6.768;2023-08-12T01:59:39;2.28;;;1.23;;
11986;SDS011;6053;51.382;6.768;2023-08-12T02:02:10;0.95;;;0.70;;
11986;SDS011;6053;51.382;6.768;2023-08-12T02:04:41;0.77;;;0.77;;
11986;SDS011;6053;51.382;6.768;2023-08-12T02:07:13;0.50;;;0.50;;
11986;SDS011;6053;51.382;6.768;2023-08-12T02:09:43;1.35;;;1.25;;
11986;SDS011;6053;51.382;6.768;2023-08-12T02:12:12;0.60;;;0.60;;
11986;SDS011;6053;51.382;6.768;2023-08-12T02:14:50;1.02;;;0.93;;
11986;SDS011;6053;51.382;6.768;2023-08-12T02:17:22;0.75;;;0.50;;
11986;SDS011;6053;51.382;6.768;2023-08-12T02:19:51;0.60;;;0.60;;
11986;SDS011;6053;51.382;6.768;2023-08-12T02:22:19;0.63;;;0.57;;
11986;SDS011;6053;51.382;6.768;2023-08-12T02:24:50;0.50;;;0.50;;
11986;SDS011;6053;51.382;6.768;2023-08-12T02:27:19;0.95;;;0.90;;
11986;SDS011;6053;51.382;6.768;2023-08-12T02:29:51;0.77;;;0.77;;
11986;SDS011;6053;51.382;6.768;2023-08-12T02:32:19;0.70;;;0.65;;
11986;SDS011;6053;51.382;6.768;2023-08-12T02:34:51;0.60;;;0.60;;
11986;SDS011;6053;51.382;6.768;2023-08-12T02:37:25;1.17;;;0.80;;
11986;SDS011;6053;51.382;6.768;2023-08-12T02:39:55;0.70;;;0.70;;
11986;SDS011;6053;51.382;6.768;2023-08-12T02:42:24;3.15;;;1.70;;
11986;SDS011;6053;51.382;6.768;2023-08-12T02:44:53;1.05;;;0.95;;
11986;SDS011;6053;51.382;6.768;2023-08-12T02:47:26;0.98;;;0.93;;
11986;SDS011;6053;51.382;6.768;2023-08-12T02:49:55;0.88;;;0.70;;
11986;SDS011;6053;51.382;6.768;2023-08-12T02:52:26;1.33;;;1.02;;
11986;SDS011;6053;51.382;6.768;2023-08-12T02:55:05;1.73;;;1.43;;
11986;SDS011;6053;51.382;6.768;2023-08-12T02:57:34;1.40;;;1.30;;
11986;SDS011;6053;51.382;6.768;2023-08-12T03:00:10;0.60;;;0.60;;
11986;SDS011;6053;51.382;6.768;2023-08-12T03:02:41;2.40;;;2.13;;
11986;SDS011;6053;51.382;6.768;2023-08-12T03:05:13;1.92;;;1.15;;
11986;SDS011;6053;51.382;6.768;2023-08-12T03:07:45;1.75;;;1.38;;
11986;SDS011;6053;51.382;6.768;2023-08-12T03:10:15;2.30;;;1.63;;
11986;SDS011;6053;51.382;6.768;2023-08-12T03:12:43;2.90;;;1.65;;
11986;SDS011;6053;51.382;6.768;2023-08-12T03:15:12;1.33;;;1.23;;
11986;SDS011;6053;51.382;6.768;2023-08-12T03:17:41;2.88;;;2.10;;
11986;SDS011;6053;51.382;6.768;2023-08-12T03:20:10;2.67;;;2.45;;
11986;SDS011;6053;51.382;6.768;2023-08-12T03:22:38;2.97;;;2.47;;
11986;SDS011;6053;51.382;6.768;2023-08-12T03:25:09;2.92;;;2.08;;
11986;SDS011;6053;51.382;6.768;2023-08-12T03:27:50;2.03;;;1.92;;
11986;SDS011;6053;51.382;6.768;2023-08-12T03:30:21;1.67;;;1.10;;
11986;SDS011;6053;51.382;6.768;2023-08-12T03:32:50;3.17;;;2.20;;
11986;SDS011;6053;51.382;6.768;2023-08-12T03:35:19;2.43;;;2.23;;
11986;SDS011;6053;51.382;6.768;2023-08-12T03:37:54;0.82;;;0.80;;
11986;SDS011;6053;51.382;6.768;2023-08-12T03:40:22;5.25;;;2.10;;
11986;SDS011;6053;51.382;6.768;2023-08-12T03:42:52;3.72;;;2.40;;
11986;SDS011;6053;51.382;6.768;2023-08-12T03:45:24;2.85;;;2.05;;
11986;SDS011;6053;51.382;6.768;2023-08-12T03:47:59;3.15;;;2.38;;
11986;SDS011;6053;51.382;6.768;2023-08-12T03:50:27;3.47;;;2.33;;
11986;SDS011;6053;51.382;6.768;2023-08-12T03:53:00;3.47;;;2.40;;
11986;SDS011;6053;51.382;6.768;2023-08-12T03:55:32;4.18;;;2.28;;
11986;SDS011;6053;51.382;6.768;2023-08-12T03:58:02;2.20;;;1.63;;
11986;SDS011;6053;51.382;6.768;2023-08-12T04:00:31;4.33;;;2.40;;
11986;SDS011;6053;51.382;6.768;2023-08-12T04:03:03;2.65;;;1.52;;
11986;SDS011;6053;51.382;6.768;2023-08-12T04:05:35;2.55;;;1.88;;
11986;SDS011;6053;51.382;6.768;2023-08-12T04:08:03;2.07;;;1.13;;
11986;SDS011;6053;51.382;6.768;2023-08-12T04:10:32;2.53;;;1.92;;
11986;SDS011;6053;51.382;6.768;2023-08-12T04:13:02;2.43;;;1.33;;
11986;SDS011;6053;51.382;6.768;2023-08-12T04:15:31;2.10;;;1.90;;
11986;SDS011;6053;51.382;6.768;2023-08-12T04:17:59;2.53;;;1.63;;
11986;SDS011;6053;51.382;6.768;2023-08-12T04:20:28;1.15;;;1.05;;
11986;SDS011;6053;51.382;6.768;2023-08-12T04:22:57;2.03;;;1.55;;
11986;SDS011;6053;51.382;6.768;2023-08-12T04:25:26;1.40;;;0.73;;
11986;SDS011;6053;51.382;6.768;2023-08-12T04:27:54;1.05;;;0.90;;
11986;SDS011;6053;51.382;6.768;2023-08-12T04:30:27;1.27;;;1.15;;
11986;SDS011;6053;51.382;6.768;2023-08-12T04:32:58;1.00;;;1.00;;
11986;SDS011;6053;51.382;6.768;2023-08-12T04:35:27;0.73;;;0.73;;
11986;SDS011;6053;51.382;6.768;2023-08-12T04:38:02;1.17;;;1.10;;
11986;SDS011;6053;51.382;6.768;2023-08-12T04:40:38;1.00;;;0.85;;
11986;SDS011;6053;51.382;6.768;2023-08-12T04:43:13;0.65;;;0.65;;
11986;SDS011;6053;51.382;6.768;2023-08-12T04:45:46;0.60;;;0.60;;
11986;SDS011;6053;51.382;6.768;2023-08-12T04:48:14;0.73;;;0.73;;
11986;SDS011;6053;51.382;6.768;2023-08-12T04:50:43;0.90;;;0.77;;
11986;SDS011;6053;51.382;6.768;2023-08-12T04:53:14;0.90;;;0.90;;
11986;SDS011;6053;51.382;6.768;2023-08-12T04:55:49;0.88;;;0.88;;
11986;SDS011;6053;51.382;6.768;2023-08-12T04:58:18;2.35;;;1.45;;
11986;SDS011;6053;51.382;6.768;2023-08-12T05:00:50;0.93;;;0.93;;
11986;SDS011;6053;51.382;6.768;2023-08-12T05:03:22;1.70;;;1.60;;
11986;SDS011;6053;51.382;6.768;2023-08-12T05:05:50;1.60;;;1.50;;
11986;SDS011;6053;51.382;6.768;2023-08-12T05:08:19;1.40;;;1.27;;
11986;SDS011;6053;51.382;6.768;2023-08-12T05:10:54;0.90;;;0.90;;
11986;SDS011;6053;51.382;6.768;2023-08-12T05:13:26;2.57;;;2.17;;
11986;SDS011;6053;51.382;6.768;2023-08-12T05:15:57;0.85;;;0.80;;
11986;SDS011;6053;51.382;6.768;2023-08-12T05:18:25;4.18;;;2.05;;
11986;SDS011;6053;51.382;6.768;2023-08-12T05:20:55;0.85;;;0.85;;
11986;SDS011;6053;51.382;6.768;2023-08-12T05:23:31;1.10;;;1.00;;
11986;SDS011;6053;51.382;6.768;2023-08-12T05:25:59;4.25;;;1.85;;
11986;SDS011;6053;51.382;6.768;2023-08-12T05:28:37;1.13;;;1.07;;
11986;SDS011;6053;51.382;6.768;2023-08-12T05:31:07;2.75;;;1.65;;
11986;SDS011;6053;51.382;6.768;2023-08-12T05:33:35;1.63;;;1.53;;
11986;SDS011;6053;51.382;6.768;2023-08-12T05:36:04;1.80;;;1.63;;
11986;SDS011;6053;51.382;6.768;2023-08-12T05:38:32;1.40;;;1.30;;
11986;SDS011;6053;51.382;6.768;2023-08-12T05:41:01;2.03;;;1.65;;
11986;SDS011;6053;51.382;6.768;2023-08-12T05:43:40;1.85;;;1.48;;
11986;SDS011;6053;51.382;6.768;2023-08-12T05:46:13;3.00;;;1.30;;
11986;SDS011;6053;51.382;6.768;2023-08-12T05:48:45;1.65;;;1.27;;
11986;SDS011;6053;51.382;6.768;2023-08-12T05:51:14;1.47;;;1.17;;
11986;SDS011;6053;51.382;6.768;2023-08-12T05:53:54;0.73;;;0.73;;
11986;SDS011;6053;51.382;6.768;2023-08-12T05:56:23;1.90;;;1.73;;
11986;SDS011;6053;51.382;6.768;2023-08-12T05:58:57;2.17;;;1.40;;
11986;SDS011;6053;51.382;6.768;2023-08-12T06:01:30;0.68;;;0.68;;
11986;SDS011;6053;51.382;6.768;2023-08-12T06:03:59;3.90;;;1.90;;
11986;SDS011;6053;51.382;6.768;2023-08-12T06:06:27;2.85;;;1.83;;
11986;SDS011;6053;51.382;6.768;2023-08-12T06:08:59;3.63;;;1.95;;
11986;SDS011;6053;51.382;6.768;2023-08-12T06:11:27;2.90;;;1.92;;
11986;SDS011;6053;51.382;6.768;2023-08-12T06:14:02;1.80;;;1.03;;
11986;SDS011;6053;51.382;6.768;2023-08-12T06:16:38;3.25;;;1.48;;
11986;SDS011;6053;51.382;6.768;2023-08-12T06:19:06;0.98;;;0.98;;
11986;SDS011;6053;51.382;6.768;2023-08-12T06:21:40;1.90;;;1.33;;
11986;SDS011;6053;51.382;6.768;2023-08-12T06:24:15;2.65;;;1.42;;
11986;SDS011;6053;51.382;6.768;2023-08-12T06:26:46;2.90;;;1.90;;
11986;SDS011;6053;51.382;6.768;2023-08-12T06:29:15;2.45;;;1.48;;
11986;SDS011;6053;51.382;6.768;2023-08-12T06:31:57;2.20;;;1.60;;
11986;SDS011;6053;51.382;6.768;2023-08-12T06:34:25;2.92;;;1.60;;
11986;SDS011;6053;51.382;6.768;2023-08-12T06:36:57;1.15;;;1.05;;
11986;SDS011;6053;51.382;6.768;2023-08-12T06:39:25;1.98;;;1.35;;
11986;SDS011;6053;51.382;6.768;2023-08-12T06:41:57;2.93;;;2.00;;
11986;SDS011;6053;51.382;6.768;2023-08-12T06:44:25;2.08;;;1.70;;
11986;SDS011;6053;51.382;6.768;2023-08-12T06:47:01;2.55;;;1.70;;
11986;SDS011;6053;51.382;6.768;2023-08-12T06:49:33;3.28;;;2.00;;
11986;SDS011;6053;51.382;6.768;2023-08-12T06:52:10;1.17;;;1.10;;
11986;SDS011;6053;51.382;6.768;2023-08-12T06:54:45;2.38;;;1.60;;
11986;SDS011;6053;51.382;6.768;2023-08-12T06:57:13;1.95;;;1.85;;
11986;SDS011;6053;51.382;6.768;2023-08-12T06:59:57;2.77;;;2.10;;
11986;SDS011;6053;51.382;6.768;2023-08-12T07:02:27;2.05;;;1.83;;
11986;SDS011;6053;51.382;6.768;2023-08-12T07:04:56;1.20;;;1.10;;
11986;SDS011;6053;51.382;6.768;2023-08-12T07:07:25;3.67;;;1.73;;
11986;SDS011;6053;51.382;6.768;2023-08-12T07:09:53;1.40;;;1.30;;
11986;SDS011;6053;51.382;6.768;2023-08-12T07:12:22;1.80;;;1.70;;
11986;SDS011;6053;51.382;6.768;2023-08-12T07:14:50;2.45;;;1.45;;
11986;SDS011;6053;51.382;6.768;2023-08-12T07:17:19;3.88;;;1.58;;
11986;SDS011;6053;51.382;6.768;2023-08-12T07:19:52;1.80;;;1.70;;
11986;SDS011;6053;51.382;6.768;2023-08-12T07:22:21;1.97;;;1.37;;
11986;SDS011;6053;51.382;6.768;2023-08-12T07:24:52;1.73;;;1.30;;
11986;SDS011;6053;51.382;6.768;2023-08-12T07:27:22;1.83;;;1.50;;
11986;SDS011;6053;51.382;6.768;2023-08-12T07:29:53;1.90;;;1.10;;
11986;SDS011;6053;51.382;6.768;2023-08-12T07:32:22;1.20;;;1.20;;
11986;SDS011;6053;51.382;6.768;2023-08-12T07:34:51;1.15;;;1.15;;
11986;SDS011;6053;51.382;6.768;2023-08-12T07:37:20;2.13;;;1.50;;
11986;SDS011;6053;51.382;6.768;2023-08-12T07:39:52;1.52;;;1.42;;
11986;SDS011;6053;51.382;6.768;2023-08-12T07:42:24;1.83;;;1.48;;
11986;SDS011;6053;51.382;6.768;2023-08-12T07:44:55;1.40;;;1.30;;
11986;SDS011;6053;51.382;6.768;2023-08-12T07:47:24;1.88;;;1.40;;
11986;SDS011;6053;51.382;6.768;2023-08-12T07:49:59;1.03;;;1.00;;
11986;SDS011;6053;51.382;6.768;2023-08-12T07:52:34;1.30;;;1.20;;
11986;SDS011;6053;51.382;6.768;2023-08-12T07:55:03;1.30;;;1.20;;
11986;SDS011;6053;51.382;6.768;2023-08-12T07:57:32;1.20;;;1.10;;
11986;SDS011;6053;51.382;6.768;2023-08-12T08:00:01;2.58;;;1.25;;
11986;SDS011;6053;51.382;6.768;2023-08-12T08:02:31;1.70;;;1.17;;
11986;SDS011;6053;51.382;6.768;2023-08-12T08:05:01;0.65;;;0.65;;
11986;SDS011;6053;51.382;6.768;2023-08-12T08:07:30;2.90;;;1.20;;
11986;SDS011;6053;51.382;6.768;2023-08-12T08:09:59;2.60;;;1.00;;
11986;SDS011;6053;51.382;6.768;2023-08-12T08:12:30;0.80;;;0.80;;
11986;SDS011;6053;51.382;6.768;2023-08-12T08:15:05;1.00;;;0.80;;
11986;SDS011;6053;51.382;6.768;2023-08-12T08:17:39;1.80;;;0.93;;
11986;SDS011;6053;51.382;6.768;2023-08-12T08:20:17;2.10;;;1.05;;
11986;SDS011;6053;51.382;6.768;2023-08-12T08:22:46;1.27;;;0.77;;
11986;SDS011;6053;51.382;6.768;2023-08-12T08:25:20;1.30;;;1.20;;
11986;SDS011;6053;51.382;6.768;2023-08-12T08:27:49;0.75;;;0.73;;
11986;SDS011;6053;51.382;6.768;2023-08-12T08:30:18;0.60;;;0.60;;
11986;SDS011;6053;51.382;6.768;2023-08-12T08:32:54;1.17;;;1.08;;
11986;SDS011;6053;51.382;6.768;2023-08-12T08:35:27;1.23;;;1.08;;
11986;SDS011;6053;51.382;6.768;2023-08-12T08:37:58;2.63;;;1.10;;
11986;SDS011;6053;51.382;6.768;2023-08-12T08:40:32;0.60;;;0.50;;
11986;SDS011;6053;51.382;6.768;2023-08-12T08:43:11;1.20;;;1.10;;
11986;SDS011;6053;51.382;6.768;2023-08-12T08:46:01;1.40;;;1.15;;
11986;SDS011;6053;51.382;6.768;2023-08-12T08:48:30;1.20;;;1.10;;
11986;SDS011;6053;51.382;6.768;2023-08-12T08:51:05;1.70;;;1.07;;
11986;SDS011;6053;51.382;6.768;2023-08-12T08:53:44;3.47;;;1.20;;
11986;SDS011;6053;51.382;6.768;2023-08-12T08:56:35;1.08;;;0.98;;
11986;SDS011;6053;51.382;6.768;2023-08-12T08:59:17;0.93;;;0.93;;
11986;SDS011;6053;51.382;6.768;2023-08-12T09:01:51;1.67;;;1.00;;
11986;SDS011;6053;51.382;6.768;2023-08-12T09:04:24;2.67;;;1.20;;
11986;SDS011;6053;51.382;6.768;2023-08-12T09:06:55;1.80;;;1.00;;
11986;SDS011;6053;51.382;6.768;2023-08-12T09:09:26;0.90;;;0.90;;
11986;SDS011;6053;51.382;6.768;2023-08-12T09:11:55;1.10;;;1.10;;
11986;SDS011;6053;51.382;6.768;2023-08-12T09:14:30;0.93;;;0.80;;
11986;SDS011;6053;51.382;6.768;2023-08-12T09:16:58;2.28;;;1.10;;
11986;SDS011;6053;51.382;6.768;2023-08-12T09:19:27;2.70;;;1.05;;
11986;SDS011;6053;51.382;6.768;2023-08-12T09:22:04;0.93;;;0.93;;
11986;SDS011;6053;51.382;6.768;2023-08-12T09:24:36;2.05;;;1.20;;
11986;SDS011;6053;51.382;6.768;2023-08-12T09:27:04;0.98;;;0.88;;
11986;SDS011;6053;51.382;6.768;2023-08-12T09:29:34;0.90;;;0.90;;
11986;SDS011;6053;51.382;6.768;2023-08-12T09:32:07;1.25;;;1.02;;
11986;SDS011;6053;51.382;6.768;2023-08-12T09:34:38;1.38;;;0.82;;
11986;SDS011;6053;51.382;6.768;2023-08-12T09:37:16;0.85;;;0.85;;
11986;SDS011;6053;51.382;6.768;2023-08-12T09:39:54;1.00;;;0.90;;
11986;SDS011;6053;51.382;6.768;2023-08-12T09:42:28;1.83;;;0.90;;
11986;SDS011;6053;51.382;6.768;2023-08-12T09:45:03;1.43;;;0.90;;
11986;SDS011;6053;51.382;6.768;2023-08-12T09:47:34;1.08;;;0.88;;
11986;SDS011;6053;51.382;6.768;2023-08-12T09:50:02;0.63;;;0.63;;
11986;SDS011;6053;51.382;6.768;2023-08-12T09:52:35;0.95;;;0.80;;
11986;SDS011;6053;51.382;6.768;2023-08-12T09:55:04;2.10;;;0.63;;
11986;SDS011;6053;51.382;6.768;2023-08-12T09:57:38;1.10;;;0.87;;
11986;SDS011;6053;51.382;6.768;2023-08-12T10:00:16;0.67;;;0.67;;
11986;SDS011;6053;51.382;6.768;2023-08-12T10:02:46;0.43;;;0.43;;
11986;SDS011;6053;51.382;6.768;2023-08-12T10:05:21;0.45;;;0.40;;
11986;SDS011;6053;51.382;6.768;2023-08-12T10:07:54;0.60;;;0.40;;
11986;SDS011;6053;51.382;6.768;2023-08-12T10:10:25;0.50;;;0.50;;
11986;SDS011;6053;51.382;6.768;2023-08-12T10:12:54;0.20;;;0.20;;
11986;SDS011;6053;51.382;6.768;2023-08-12T10:15:36;0.40;;;0.40;;
11986;SDS011;6053;51.382;6.768;2023-08-12T10:18:05;0.40;;;0.40;;
11986;SDS011;6053;51.382;6.768;2023-08-12T10:20:40;0.40;;;0.40;;
11986;SDS011;6053;51.382;6.768;2023-08-12T10:23:16;0.40;;;0.40;;
11986;SDS011;6053;51.382;6.768;2023-08-12T10:25:48;0.50;;;0.40;;
11986;SDS011;6053;51.382;6.768;2023-08-12T10:28:34;0.40;;;0.40;;
11986;SDS011;6053;51.382;6.768;2023-08-12T10:31:04;0.32;;;0.32;;
11986;SDS011;6053;51.382;6.768;2023-08-12T10:33:37;1.00;;;0.50;;
11986;SDS011;6053;51.382;6.768;2023-08-12T10:36:06;0.45;;;0.35;;
11986;SDS011;6053;51.382;6.768;2023-08-12T10:38:37;1.00;;;0.30;;
11986;SDS011;6053;51.382;6.768;2023-08-12T10:44:00;1.30;;;0.35;;
11986;SDS011;6053;51.382;6.768;2023-08-12T10:46:33;0.70;;;0.30;;
11986;SDS011;6053;51.382;6.768;2023-08-12T10:49:03;0.40;;;0.40;;
11986;SDS011;6053;51.382;6.768;2023-08-12T10:51:40;0.50;;;0.32;;
11986;SDS011;6053;51.382;6.768;2023-08-12T10:54:20;1.45;;;0.50;;
11986;SDS011;6053;51.382;6.768;2023-08-12T10:57:05;0.30;;;0.30;;
11986;SDS011;6053;51.382;6.768;2023-08-12T10:59:56;0.70;;;0.20;;
11986;SDS011;6053;51.382;6.768;2023-08-12T11:02:31;0.20;;;0.20;;
11986;SDS011;6053;51.382;6.768;2023-08-12T11:05:01;0.20;;;0.20;;
11986;SDS011;6053;51.382;6.768;2023-08-12T11:07:37;0.20;;;0.20;;
11986;SDS011;6053;51.382;6.768;2023-08-12T11:10:12;0.10;;;0.10;;
11986;SDS011;6053;51.382;6.768;2023-08-12T11:12:48;0.20;;;0.20;;
11986;SDS011;6053;51.382;6.768;2023-08-12T11:15:30;0.10;;;0.10;;
11986;SDS011;6053;51.382;6.768;2023-08-12T11:18:01;0.25;;;0.25;;
11986;SDS011;6053;51.382;6.768;2023-08-12T11:20:34;1.80;;;0.28;;
11986;SDS011;6053;51.382;6.768;2023-08-12T11:23:04;0.30;;;0.30;;
11986;SDS011;6053;51.382;6.768;2023-08-12T11:25:36;0.20;;;0.20;;
11986;SDS011;6053;51.382;6.768;2023-08-12T11:28:05;0.20;;;0.20;;
11986;SDS011;6053;51.382;6.768;2023-08-12T11:30:50;0.90;;;0.25;;
11986;SDS011;6053;51.382;6.768;2023-08-12T11:33:19;0.20;;;0.20;;
11986;SDS011;6053;51.382;6.768;2023-08-12T11:35:51;0.25;;;0.25;;
11986;SDS011;6053;51.382;6.768;2023-08-12T11:38:22;0.70;;;0.25;;
11986;SDS011;6053;51.382;6.768;2023-08-12T11:40:52;0.20;;;0.20;;
11986;SDS011;6053;51.382;6.768;2023-08-12T11:43:29;0.70;;;0.20;;
11986;SDS011;6053;51.382;6.768;2023-08-12T11:45:59;0.60;;;0.40;;
11986;SDS011;6053;51.382;6.768;2023-08-12T11:48:28;0.52;;;0.20;;
11986;SDS011;6053;51.382;6.768;2023-08-12T11:50:59;0.70;;;0.30;;
11986;SDS011;6053;51.382;6.768;2023-08-12T11:53:28;0.20;;;0.20;;
11986;SDS011;6053;51.382;6.768;2023-08-12T11:56:01;0.50;;;0.30;;
11986;SDS011;6053;51.382;6.768;2023-08-12T11:58:42;0.20;;;0.20;;
11986;SDS011;6053;51.382;6.768;2023-08-12T12:01:21;0.30;;;0.30;;
11986;SDS011;6053;51.382;6.768;2023-08-12T12:03:51;0.57;;;0.33;;
11986;SDS011;6053;51.382;6.768;2023-08-12T12:06:27;0.50;;;0.15;;
11986;SDS011;6053;51.382;6.768;2023-08-12T12:09:03;0.30;;;0.30;;
11986;SDS011;6053;51.382;6.768;2023-08-12T12:11:53;0.30;;;0.30;;
11986;SDS011;6053;51.382;6.768;2023-08-12T12:14:22;0.90;;;0.60;;
11986;SDS011;6053;51.382;6.768;2023-08-12T12:17:06;0.38;;;0.38;;
11986;SDS011;6053;51.382;6.768;2023-08-12T12:19:42;0.70;;;0.70;;
11986;SDS011;6053;51.382;6.768;2023-08-12T12:22:16;1.38;;;0.90;;
11986;SDS011;6053;51.382;6.768;2023-08-12T12:24:47;1.15;;;0.90;;
11986;SDS011;6053;51.382;6.768;2023-08-12T12:27:17;1.50;;;1.33;;
11986;SDS011;6053;51.382;6.768;2023-08-12T12:29:55;2.03;;;1.85;;
11986;SDS011;6053;51.382;6.768;2023-08-12T12:32:24;3.43;;;1.73;;
11986;SDS011;6053;51.382;6.768;2023-08-12T12:35:02;1.53;;;1.10;;
11986;SDS011;6053;51.382;6.768;2023-08-12T12:37:31;1.20;;;1.10;;
11986;SDS011;6053;51.382;6.768;2023-08-12T12:40:06;0.90;;;0.90;;
11986;SDS011;6053;51.382;6.768;2023-08-12T12:42:37;1.13;;;1.10;;
11986;SDS011;6053;51.382;6.768;2023-08-12T12:45:18;1.10;;;1.00;;
11986;SDS011;6053;51.382;6.768;2023-08-12T12:47:46;1.00;;;1.00;;
11986;SDS011;6053;51.382;6.768;2023-08-12T12:50:15;0.93;;;0.93;;
11986;SDS011;6053;51.382;6.768;2023-08-12T12:52:46;1.23;;;1.20;;
11986;SDS011;6053;51.382;6.768;2023-08-12T12:55:24;1.47;;;1.37;;
11986;SDS011;6053;51.382;6.768;2023-08-12T13:03:19;1.50;;;1.40;;
11986;SDS011;6053;51.382;6.768;2023-08-12T13:05:52;1.23;;;1.20;;
11986;SDS011;6053;51.382;6.768;2023-08-12T13:08:24;1.30;;;1.20;;
11986;SDS011;6053;51.382;6.768;2023-08-12T13:10:52;1.35;;;1.25;;
11986;SDS011;6053;51.382;6.768;2023-08-12T13:13:27;1.10;;;1.10;;
11986;SDS011;6053;51.382;6.768;2023-08-12T13:16:04;0.88;;;0.88;;
11986;SDS011;6053;51.382;6.768;2023-08-12T13:18:35;1.15;;;1.05;;
11986;SDS011;6053;51.382;6.768;2023-08-12T13:21:04;1.90;;;1.80;;
11986;SDS011;6053;51.382;6.768;2023-08-12T13:23:33;1.70;;;1.60;;
11986;SDS011;6053;51.382;6.768;2023-08-12T13:26:04;2.00;;;1.90;;
11986;SDS011;6053;51.382;6.768;2023-08-12T13:28:33;1.10;;;1.10;;
11986;SDS011;6053;51.382;6.768;2023-08-12T13:31:01;1.87;;;1.23;;
11986;SDS011;6053;51.382;6.768;2023-08-12T13:33:30;0.90;;;0.80;;
11986;SDS011;6053;51.382;6.768;2023-08-12T13:36:00;1.27;;;0.97;;
11986;SDS011;6053;51.382;6.768;2023-08-12T13:38:29;0.70;;;0.70;;
11986;SDS011;6053;51.382;6.768;2023-08-12T13:41:00;1.38;;;1.00;;
11986;SDS011;6053;51.382;6.768;2023-08-12T13:43:29;0.82;;;0.82;;
11986;SDS011;6053;51.382;6.768;2023-08-12T13:46:00;1.10;;;1.00;;
11986;SDS011;6053;51.382;6.768;2023-08-12T13:48:29;1.23;;;1.20;;
11986;SDS011;6053;51.382;6.768;2023-08-12T13:51:05;2.05;;;1.65;;
11986;SDS011;6053;51.382;6.768;2023-08-12T13:53:33;2.27;;;1.70;;
11986;SDS011;6053;51.382;6.768;2023-08-12T13:56:02;1.92;;;1.83;;
11986;SDS011;6053;51.382;6.768;2023-08-12T13:58:31;2.10;;;2.00;;
11986;SDS011;6053;51.382;6.768;2023-08-12T14:01:00;1.93;;;1.80;;
11986;SDS011;6053;51.382;6.768;2023-08-12T14:03:28;2.35;;;2.15;;
11986;SDS011;6053;51.382;6.768;2023-08-12T14:06:00;1.67;;;1.58;;
11986;SDS011;6053;51.382;6.768;2023-08-12T14:08:32;2.33;;;1.80;;
11986;SDS011;6053;51.382;6.768;2023-08-12T14:11:01;1.75;;;1.65;;
11986;SDS011;6053;51.382;6.768;2023-08-12T14:13:30;2.13;;;1.80;;
11986;SDS011;6053;51.382;6.768;2023-08-12T14:16:07;1.63;;;1.52;;
11986;SDS011;6053;51.382;6.768;2023-08-12T14:18:35;1.50;;;1.40;;
11986;SDS011;6053;51.382;6.768;2023-08-12T14:21:04;1.73;;;1.40;;
11986;SDS011;6053;51.382;6.768;2023-08-12T14:23:34;2.47;;;1.48;;
11986;SDS011;6053;51.382;6.768;2023-08-12T14:26:05;2.77;;;1.90;;
11986;SDS011;6053;51.382;6.768;2023-08-12T14:28:36;1.40;;;1.30;;
11986;SDS011;6053;51.382;6.768;2023-08-12T14:31:05;3.30;;;2.13;;
11986;SDS011;6053;51.382;6.768;2023-08-12T14:33:34;2.87;;;1.80;;
11986;SDS011;6053;51.382;6.768;2023-08-12T14:36:06;2.45;;;1.50;;
11986;SDS011;6053;51.382;6.768;2023-08-12T14:38:36;2.07;;;1.70;;
11986;SDS011;6053;51.382;6.768;2023-08-12T14:41:05;2.15;;;1.70;;
11986;SDS011;6053;51.382;6.768;2023-08-12T14:43:33;2.60;;;1.60;;
11986;SDS011;6053;51.382;6.768;2023-08-12T14:46:03;2.00;;;1.13;;
11986;SDS011;6053;51.382;6.768;2023-08-12T14:48:32;1.17;;;0.90;;
11986;SDS011;6053;51.382;6.768;2023-08-12T14:51:00;1.10;;;1.00;;
11986;SDS011;6053;51.382;6.768;2023-08-12T14:53:31;1.15;;;1.15;;
11986;SDS011;6053;51.382;6.768;2023-08-12T14:56:02;1.30;;;1.20;;
11986;SDS011;6053;51.382;6.768;2023-08-12T14:58:31;1.33;;;1.20;;
11986;SDS011;6053;51.382;6.768;2023-08-12T15:01:02;1.30;;;1.00;;
11986;SDS011;6053;51.382;6.768;2023-08-12T15:03:34;1.90;;;1.07;;
11986;SDS011;6053;51.382;6.768;2023-08-12T15:06:03;1.65;;;0.93;;
11986;SDS011;6053;51.382;6.768;2023-08-12T15:08:32;1.90;;;0.80;;
11986;SDS011;6053;51.382;6.768;2023-08-12T15:11:02;2.42;;;0.90;;
11986;SDS011;6053;51.382;6.768;2023-08-12T15:13:31;1.43;;;1.00;;
11986;SDS011;6053;51.382;6.768;2023-08-12T15:15:59;1.05;;;0.90;;
11986;SDS011;6053;51.382;6.768;2023-08-12T15:18:34;2.08;;;1.05;;
11986;SDS011;6053;51.382;6.768;2023-08-12T15:21:03;2.22;;;0.70;;
11986;SDS011;6053;51.382;6.768;2023-08-12T15:23:31;1.00;;;0.88;;
11986;SDS011;6053;51.382;6.768;2023-08-12T15:26:05;1.80;;;0.80;;
11986;SDS011;6053;51.382;6.768;2023-08-12T15:28:37;1.20;;;0.70;;
11986;SDS011;6053;51.382;6.768;2023-08-12T15:31:06;0.60;;;0.57;;
11986;SDS011;6053;51.382;6.768;2023-08-12T15:33:34;2.70;;;0.90;;
11986;SDS011;6053;51.382;6.768;2023-08-12T15:36:03;0.77;;;0.70;;